KUVA/UVA METAR and TAF weather

Enter ICAO airport designator
Station Type Date Time Source
KUVA METAR 2019/10/15 22:15 UTC NOAA

KUVA 152215Z AUTO 00000KT 10SM CLR 34/19 A2984 RMK AO2 T03350187


Station Type Date Time Source
KUVA Decoded METAR 2019/10/15 22:15 UTC NOAA

Uvalde, Garner Field Airport, TX, United States (KUVA) 29-12-40N 099-44-36W
Oct 15, 2019 - 06:15 PM EDT / 2019.10.15 2215 UTC
Wind: Calm:0
Visibility: 10 mile(s):0
Sky conditions: clear
Temperature: 92.3 F (33.5 C)
Heat index: 94.6 F (34.8 C):1
Dew Point: 65.7 F (18.7 C)
Relative Humidity: 41%
Pressure (altimeter): 29.84 in. Hg (1010 hPa)
ob: KUVA 152215Z AUTO 00000KT 10SM CLR 34/19 A2984 RMK AO2 T03350187
cycle: 22

Station Type Date Time Source
KUVA TAF UTC NOAA

Error!

Example: see airport list